createdAt,value
2022-12-12T00:03:59.542Z,23.87
2022-12-12T00:09:00.572Z,23.40
2022-12-12T00:13:55.208Z,28.20
2022-12-12T00:18:57.227Z,28.70
2022-12-12T00:23:45.535Z,27.53
2022-12-12T00:28:50.678Z,21.50
2022-12-12T00:33:39.726Z,25.00
2022-12-12T00:38:36.449Z,27.77
2022-12-12T00:43:31.943Z,29.07
2022-12-12T00:48:31.503Z,26.10
2022-12-12T00:53:38.300Z,26.67
2022-12-12T00:59:42.471Z,26.20
2022-12-12T01:05:37.767Z,24.43
2022-12-12T01:11:11.973Z,28.90
2022-12-12T01:22:37.915Z,24.87
2022-12-12T01:27:57.772Z,29.20
2022-12-12T01:33:52.909Z,27.20
2022-12-12T01:39:11.465Z,26.93
2022-12-12T01:44:15.843Z,25.43
2022-12-12T01:54:55.432Z,25.37
2022-12-12T02:00:11.420Z,30.20
2022-12-12T02:05:20.163Z,28.63
2022-12-12T02:10:13.917Z,28.13
2022-12-12T02:15:43.331Z,29.27
2022-12-12T02:27:29.976Z,32.47
2022-12-12T02:32:31.121Z,27.60
2022-12-12T02:37:35.205Z,26.77
2022-12-12T02:42:38.417Z,29.00
2022-12-12T02:47:45.223Z,30.13
2022-12-12T02:52:33.392Z,30.13
2022-12-12T02:57:22.543Z,29.70
2022-12-12T03:02:40.594Z,26.70
2022-12-12T03:07:48.716Z,27.00
2022-12-12T03:12:51.834Z,25.77
2022-12-12T03:18:12.495Z,26.53
2022-12-12T03:23:17.307Z,29.00
2022-12-12T03:28:30.562Z,30.37
2022-12-12T03:33:22.234Z,26.13
2022-12-12T03:38:21.848Z,28.90
2022-12-12T03:43:17.862Z,29.00
2022-12-12T03:48:31.024Z,28.47
2022-12-12T03:53:35.768Z,27.00
2022-12-12T03:58:56.325Z,29.20
2022-12-12T04:04:00.649Z,25.50
2022-12-12T04:09:03.079Z,27.17
2022-12-12T04:14:22.609Z,33.37
2022-12-12T04:19:46.300Z,26.10
2022-12-12T04:24:46.583Z,25.23
2022-12-12T04:29:51.428Z,24.20
2022-12-12T04:34:44.328Z,27.50
2022-12-12T04:39:29.605Z,23.37
2022-12-12T04:44:21.343Z,26.90
2022-12-12T04:49:08.388Z,22.17
2022-12-12T04:53:56.463Z,24.53
2022-12-12T04:58:41.520Z,21.40
2022-12-12T05:03:43.301Z,25.67
2022-12-12T05:08:36.400Z,27.30
2022-12-12T05:13:21.768Z,27.37
2022-12-12T05:18:10.480Z,22.93
2022-12-12T05:22:56.119Z,23.67
2022-12-12T05:27:43.311Z,26.27
2022-12-12T05:32:31.053Z,22.10
2022-12-12T05:37:21.155Z,27.20
2022-12-12T05:42:08.658Z,29.63
2022-12-12T05:46:58.437Z,24.40
2022-12-12T05:51:44.851Z,21.03
2022-12-12T05:56:31.743Z,24.50
2022-12-12T06:01:36.656Z,21.20
2022-12-12T06:06:23.501Z,24.77
2022-12-12T06:11:11.240Z,24.27
2022-12-12T06:16:15.608Z,21.27
2022-12-12T06:21:06.078Z,23.37
2022-12-12T06:25:51.842Z,25.87
2022-12-12T06:30:40.194Z,29.57
2022-12-12T06:35:27.001Z,26.43
2022-12-12T06:40:15.592Z,23.83
2022-12-12T06:45:05.756Z,21.83
2022-12-12T06:49:52.605Z,25.17
2022-12-12T06:54:39.971Z,24.90
2022-12-12T06:59:30.505Z,26.17
2022-12-12T07:04:14.972Z,25.30
2022-12-12T07:09:04.307Z,20.83
2022-12-12T09:37:38.353Z,16.17
2022-12-12T09:42:26.444Z,17.67
2022-12-12T09:47:16.835Z,17.63
2022-12-12T09:52:01.401Z,16.43
2022-12-12T09:57:06.179Z,17.17
2022-12-12T10:02:06.726Z,14.87
2022-12-12T10:07:01.387Z,15.57
2022-12-12T10:11:56.601Z,16.03
2022-12-12T10:16:57.269Z,15.80
2022-12-12T10:21:54.616Z,17.23
2022-12-12T10:26:38.542Z,14.77
2022-12-12T10:31:43.215Z,18.20
2022-12-12T10:37:03.731Z,16.53
2022-12-12T10:42:09.659Z,15.13
2022-12-12T10:47:01.730Z,16.53
2022-12-12T10:52:01.805Z,14.80
2022-12-12T10:57:20.615Z,15.57
2022-12-12T11:02:37.727Z,21.23
2022-12-12T11:07:31.015Z,16.50
2022-12-12T11:12:36.476Z,16.80
2022-12-12T11:17:34.983Z,18.97
2022-12-12T11:22:26.768Z,17.80
2022-12-12T11:27:25.352Z,18.57
2022-12-12T11:32:28.678Z,16.53
2022-12-12T11:37:24.050Z,17.60
2022-12-12T11:42:26.882Z,17.73
2022-12-12T11:47:41.089Z,17.17
2022-12-12T11:52:31.433Z,19.30
2022-12-12T11:57:35.282Z,17.47
2022-12-12T12:02:53.457Z,18.27
2022-12-12T12:08:13.674Z,19.03
2022-12-12T12:13:18.685Z,18.00
2022-12-12T12:18:37.076Z,18.90
2022-12-12T12:23:29.224Z,20.87
2022-12-12T12:29:02.030Z,16.77
2022-12-12T12:34:08.475Z,18.00
2022-12-12T12:39:13.178Z,18.80
2022-12-12T12:44:19.716Z,18.53
2022-12-12T12:49:17.403Z,16.60
2022-12-12T12:54:09.091Z,18.60
2022-12-12T12:58:59.424Z,17.77
2022-12-12T13:04:17.933Z,22.53
2022-12-12T13:09:08.619Z,21.30
2022-12-12T13:13:56.382Z,24.00
2022-12-12T13:18:46.327Z,22.50
2022-12-12T13:24:12.404Z,22.10
2022-12-12T13:29:08.347Z,19.03
2022-12-12T13:34:11.934Z,18.40
2022-12-12T13:38:58.944Z,20.47
2022-12-12T13:44:03.925Z,17.67
2022-12-12T13:48:50.638Z,23.23
2022-12-12T13:53:34.716Z,20.00
2022-12-12T13:58:39.628Z,17.47
2022-12-12T14:03:31.653Z,16.77
2022-12-12T14:08:36.767Z,19.53
2022-12-12T14:13:36.249Z,19.23
2022-12-12T14:18:30.147Z,16.93
2022-12-12T14:23:33.398Z,19.00
2022-12-12T14:28:20.305Z,17.10
2022-12-12T14:33:17.770Z,17.03
2022-12-12T14:38:27.934Z,17.50
2022-12-12T14:43:29.998Z,18.83
2022-12-12T14:48:20.035Z,18.77
2022-12-12T14:54:42.266Z,17.93
2022-12-12T15:36:32.968Z,21.77
2022-12-12T16:16:05.095Z,25.37
2022-12-12T16:20:59.757Z,27.53
2022-12-12T16:25:48.871Z,23.63
2022-12-12T16:30:44.942Z,26.40
2022-12-12T16:35:39.279Z,27.80
2022-12-12T16:40:29.686Z,24.80
2022-12-12T16:45:25.576Z,26.23
2022-12-12T16:50:25.305Z,24.63
2022-12-12T16:56:12.694Z,24.33
2022-12-12T17:01:41.060Z,22.97
2022-12-12T17:06:45.496Z,23.43
2022-12-12T17:12:12.391Z,21.53
2022-12-12T17:17:38.925Z,23.13
2022-12-12T17:28:27.116Z,24.03
2022-12-12T17:33:18.932Z,21.07
2022-12-12T17:38:32.418Z,21.53
2022-12-12T17:43:29.138Z,20.53
2022-12-12T17:48:35.528Z,26.30
2022-12-12T17:53:27.274Z,23.93
2022-12-12T17:58:47.096Z,25.10
2022-12-12T18:04:27.700Z,27.83
2022-12-12T18:10:00.115Z,24.57
2022-12-12T18:14:56.149Z,29.27
2022-12-12T18:20:02.508Z,25.70
2022-12-12T18:31:45.914Z,27.13
2022-12-12T18:36:50.041Z,22.60
2022-12-12T18:48:51.058Z,25.60
2022-12-12T19:07:45.447Z,27.57
2022-12-12T19:13:51.669Z,29.50
